Time;durP1;ratioP1;P1;durP2;ratioP2;P2;SDS_P1;SDS_P2;PMS_P1;PMS_P2;Temp;Humidity;BMP_temperature;BMP_pressure;BME280_temperature;BME280_humidity;BME280_pressure;Samples;Min_cycle;Max_cycle;Signal;HPM_P1;HPM_P2
2024/04/08 00:01:09;;;;;;;;;7.00;6.00;;;;;21.05;100.00;98877.34;6690120;26;96403;-64
2024/04/08 00:04:17;;;;;;;;;5.60;5.60;;;;;21.07;100.00;98885.28;6710312;26;96465;-63
2024/04/08 00:07:19;;;;;;;;;6.00;6.00;;;;;21.08;100.00;98882.25;6704502;26;94697;-65
2024/04/08 00:10:26;;;;;;;;;5.60;5.60;;;;;21.00;100.00;98876.59;6720353;25;96601;-63
2024/04/08 00:13:28;;;;;;;;;6.00;6.00;;;;;21.06;100.00;98880.91;6712716;25;96498;-62
2024/04/08 00:16:33;;;;;;;;;6.50;6.00;;;;;21.03;100.00;98881.47;6681579;26;94326;-63
2024/04/08 00:19:38;;;;;;;;;6.60;6.00;;;;;21.01;100.00;98884.50;6720876;25;94861;-62
2024/04/08 00:22:44;;;;;;;;;6.00;6.00;;;;;20.95;100.00;98876.63;6686636;25;94316;-64
2024/04/08 00:25:49;;;;;;;;;6.00;6.00;;;;;20.97;100.00;98890.84;6671040;26;94335;-62
2024/04/08 00:28:51;;;;;;;;;5.40;5.00;;;;;20.85;100.00;98887.69;6678280;26;94695;-63
2024/04/08 00:31:56;;;;;;;;;6.80;6.00;;;;;20.67;100.00;98881.03;6686897;26;96529;-62
2024/04/08 00:35:02;;;;;;;;;7.00;7.00;;;;;20.57;100.00;98881.09;6699197;26;94677;-62
2024/04/08 00:38:07;;;;;;;;;8.00;7.00;;;;;20.48;100.00;98888.28;6701216;25;94750;-62
2024/04/08 00:41:09;;;;;;;;;8.00;8.00;;;;;20.33;100.00;98887.28;6701608;25;94967;-62
2024/04/08 00:44:14;;;;;;;;;8.00;7.00;;;;;20.24;100.00;98882.69;6700826;25;94291;-62
2024/04/08 00:47:19;;;;;;;;;7.00;7.00;;;;;20.13;100.00;98894.81;6699063;26;94382;-62
2024/04/08 00:50:24;;;;;;;;;9.00;9.00;;;;;20.01;100.00;98897.06;6690574;26;96609;-63
2024/04/08 00:53:29;;;;;;;;;9.00;8.40;;;;;19.88;100.00;98891.13;6662441;26;94352;-62
2024/04/08 00:56:32;;;;;;;;;10.00;9.00;;;;;19.78;100.00;98902.13;6686853;25;94837;-62
2024/04/08 00:59:37;;;;;;;;;10.00;9.00;;;;;19.45;100.00;98859.03;6702829;26;94363;-62
2024/04/08 01:02:43;;;;;;;;;9.40;8.40;;;;;19.59;100.00;98894.84;6674615;25;94351;-62
2024/04/08 01:05:50;;;;;;;;;8.00;8.00;;;;;19.54;100.00;98890.22;6687491;26;94738;-62
2024/04/08 01:08:55;;;;;;;;;11.00;9.50;;;;;19.44;100.00;98895.72;6662893;26;94740;-62
2024/04/08 01:12:00;;;;;;;;;10.40;10.40;;;;;19.45;100.00;98897.31;6706455;25;94388;-62
2024/04/08 01:15:03;;;;;;;;;11.40;10.40;;;;;19.39;100.00;98895.69;6722416;25;94225;-62
2024/04/08 01:18:09;;;;;;;;;11.40;10.40;;;;;19.34;100.00;98895.72;6696481;26;94378;-62
2024/04/08 01:21:14;;;;;;;;;9.00;8.50;;;;;19.29;100.00;98893.00;6697962;26;94905;-62
2024/04/08 01:24:21;;;;;;;;;12.00;11.00;;;;;19.27;100.00;98895.16;6703276;26;94501;-62
2024/04/08 01:27:27;;;;;;;;;9.60;9.40;;;;;19.24;100.00;98899.28;6704797;25;94354;-62
2024/04/08 01:30:30;;;;;;;;;11.00;11.00;;;;;19.20;100.00;98887.28;6702601;26;94680;-61
2024/04/08 01:33:37;;;;;;;;;9.60;9.00;;;;;19.20;100.00;98892.75;6678859;25;94939;-62
2024/04/08 01:36:39;;;;;;;;;11.60;9.60;;;;;19.20;100.00;98890.03;6661875;26;94323;-63
2024/04/08 01:39:47;;;;;;;;;8.20;8.20;;;;;19.17;100.00;98887.81;6701787;25;95341;-61
2024/04/08 01:42:50;;;;;;;;;8.80;8.00;;;;;19.08;100.00;98875.00;6664335;25;95419;-61
2024/04/08 01:45:55;;;;;;;;;10.00;9.25;;;;;19.11;100.00;98879.94;6688722;25;96545;-62
2024/04/08 01:49:00;;;;;;;;;10.75;10.75;;;;;19.07;100.00;98889.75;6659069;26;95722;-61
2024/04/08 01:52:02;;;;;;;;;9.00;8.50;;;;;19.00;100.00;98887.34;6659002;26;94624;-62
2024/04/08 01:55:10;;;;;;;;;11.00;10.40;;;;;19.02;100.00;98885.13;6659143;26;94808;-61
2024/04/08 01:58:15;;;;;;;;;8.40;8.40;;;;;18.89;100.00;98878.31;6659081;26;94388;-61
2024/04/08 02:01:18;;;;;;;;;9.50;9.00;;;;;18.95;100.00;98881.88;6625933;26;94686;-62
2024/04/08 02:04:23;;;;;;;;;8.60;7.00;;;;;18.92;100.00;98876.94;6658820;26;95061;-62
2024/04/08 02:07:28;;;;;;;;;9.40;8.60;;;;;18.87;100.00;98877.78;6658241;26;95378;-62
2024/04/08 02:10:36;;;;;;;;;11.00;11.00;;;;;18.83;100.00;98867.66;6661363;26;95538;-62
2024/04/08 02:13:38;;;;;;;;;9.75;9.75;;;;;18.80;100.00;98870.97;6694980;26;94466;-62
2024/04/08 02:16:43;;;;;;;;;11.00;10.25;;;;;18.77;100.00;98866.03;6703531;25;94615;-61
2024/04/08 02:19:45;;;;;;;;;9.00;9.00;;;;;18.78;100.00;98864.94;6671960;26;95192;-61
2024/04/08 02:22:51;;;;;;;;;12.00;10.00;;;;;18.76;100.00;98858.97;6702035;25;94667;-61
2024/04/08 02:26:00;;;;;;;;;11.20;11.00;;;;;18.73;100.00;98852.13;6662427;26;96261;-61
2024/04/08 02:29:02;;;;;;;;;10.00;9.00;;;;;18.72;100.00;98860.59;6685677;26;94545;-61
2024/04/08 02:32:08;;;;;;;;;13.00;12.00;;;;;18.66;100.00;98845.31;6693647;25;95922;-62
2024/04/08 02:35:10;;;;;;;;;9.00;9.00;;;;;18.71;100.00;98862.53;6692575;26;94305;-62
2024/04/08 02:38:16;;;;;;;;;9.00;9.00;;;;;18.75;100.00;98849.94;6657471;26;94840;-62
2024/04/08 02:41:21;;;;;;;;;8.00;7.00;;;;;18.80;100.00;98852.66;6659264;26;95068;-61
2024/04/08 02:44:26;;;;;;;;;8.60;8.00;;;;;18.83;100.00;98854.03;6659631;26;94884;-62
2024/04/08 02:47:28;;;;;;;;;7.00;7.00;;;;;18.89;100.00;98848.28;6673882;26;94342;-62
2024/04/08 02:50:33;;;;;;;;;9.80;9.40;;;;;18.91;100.00;98843.34;6678650;26;94212;-63
2024/04/08 02:53:36;;;;;;;;;7.60;7.00;;;;;18.95;100.00;98846.34;6648927;26;97290;-62
2024/04/08 02:56:46;;;;;;;;;7.40;7.00;;;;;19.00;100.00;98843.63;6675036;26;96922;-64
2024/04/08 02:59:48;;;;;;;;;6.20;6.20;;;;;19.03;100.00;98849.34;6691734;26;94472;-63
2024/04/08 03:02:53;;;;;;;;;7.00;6.00;;;;;19.04;100.00;98841.97;6706251;26;94465;-62
2024/04/08 03:05:56;;;;;;;;;8.00;7.00;;;;;19.10;100.00;98849.06;6675991;26;96456;-63
2024/04/08 03:09:04;;;;;;;;;8.40;7.40;;;;;19.06;100.00;98834.28;6680462;26;94344;-63
2024/04/08 03:12:09;;;;;;;;;9.00;8.80;;;;;18.97;100.00;98830.50;6704755;26;94466;-63
2024/04/08 03:15:14;;;;;;;;;8.75;8.25;;;;;18.99;100.00;98829.13;6724855;26;95656;-64
2024/04/08 03:18:16;;;;;;;;;8.00;7.60;;;;;18.99;100.00;98825.56;6724145;25;94592;-64
2024/04/08 03:21:21;;;;;;;;;8.00;7.00;;;;;18.98;100.00;98821.19;6693293;25;94611;-64
2024/04/08 03:24:24;;;;;;;;;6.40;6.00;;;;;18.97;100.00;98817.66;6693954;25;94611;-63
2024/04/08 03:27:31;;;;;;;;;8.00;8.00;;;;;18.99;100.00;98822.84;6710088;26;94943;-62
2024/04/08 03:30:35;;;;;;;;;7.00;6.40;;;;;18.97;100.00;98823.13;6715827;25;95320;-62
2024/04/08 03:33:40;;;;;;;;;6.00;6.00;;;;;18.97;100.00;98819.56;6720863;26;94297;-61
2024/04/08 03:36:42;;;;;;;;;6.00;6.00;;;;;19.04;100.00;98822.84;6705257;25;94284;-62
2024/04/08 03:39:50;;;;;;;;;5.40;5.40;;;;;19.07;100.00;98816.81;6710268;26;97222;-64
2024/04/08 03:42:57;;;;;;;;;5.00;5.00;;;;;19.14;100.00;98825.53;6680366;26;97018;-63
2024/04/08 03:46:03;;;;;;;;;5.40;5.00;;;;;19.17;100.00;98815.94;6685973;26;96565;-63
2024/04/08 03:49:08;;;;;;;;;6.00;6.00;;;;;19.33;100.00;98826.53;6693966;25;94359;-63
2024/04/08 03:52:10;;;;;;;;;5.00;5.00;;;;;19.41;100.00;98820.47;6677593;26;94335;-63
2024/04/08 03:55:16;;;;;;;;;5.60;5.00;;;;;19.50;100.00;98817.22;6675706;26;94311;-62
2024/04/08 03:58:21;;;;;;;;;5.00;5.00;;;;;19.59;100.00;98815.53;6673351;26;94624;-60
2024/04/08 04:01:26;;;;;;;;;6.00;6.00;;;;;19.64;100.00;98816.31;6743290;25;95613;-59
2024/04/08 04:04:31;;;;;;;;;5.00;5.00;;;;;19.71;100.00;98815.97;6678959;25;95131;-60
2024/04/08 04:07:34;;;;;;;;;6.00;5.00;;;;;19.77;100.00;98817.59;6693171;25;95174;-60
2024/04/08 04:10:38;;;;;;;;;5.00;5.00;;;;;19.84;100.00;98807.97;6690486;26;94667;-60
2024/04/08 04:13:43;;;;;;;;;6.00;5.00;;;;;19.89;100.00;98807.09;6686775;25;95524;-59
2024/04/08 04:16:51;;;;;;;;;5.00;5.00;;;;;19.84;100.00;98798.97;6692813;25;94395;-58
2024/04/08 04:19:53;;;;;;;;;5.20;4.20;;;;;20.00;100.00;98822.34;6680005;26;95246;-59
2024/04/08 04:22:58;;;;;;;;;6.00;6.00;;;;;20.04;100.00;98823.41;6693032;26;94282;-59
2024/04/08 04:26:00;;;;;;;;;7.60;7.00;;;;;20.07;100.00;98824.78;6688050;26;96809;-59
2024/04/08 04:29:08;;;;;;;;;9.00;8.00;;;;;20.06;100.00;98823.16;6686018;25;94442;-60
2024/04/08 04:32:10;;;;;;;;;7.60;7.60;;;;;20.03;100.00;98827.28;6681349;25;94309;-58
2024/04/08 04:35:16;;;;;;;;;9.40;7.40;;;;;20.02;100.00;98822.09;6690488;25;94906;-59
2024/04/08 04:38:18;;;;;;;;;10.60;10.00;;;;;19.99;100.00;98820.72;6680672;26;94921;-58
2024/04/08 04:41:23;;;;;;;;;9.00;8.40;;;;;19.96;100.00;98825.94;6690318;26;94377;-60
2024/04/08 04:44:28;;;;;;;;;10.50;9.00;;;;;19.99;100.00;98826.19;6692173;25;95808;-59
2024/04/08 04:47:33;;;;;;;;;10.00;9.20;;;;;20.02;100.00;98822.91;6702057;26;96534;-59
2024/04/08 04:50:38;;;;;;;;;11.20;11.00;;;;;19.99;100.00;98831.66;6704015;26;94508;-60
2024/04/08 04:53:40;;;;;;;;;9.00;9.00;;;;;20.00;100.00;98836.03;6699840;26;96034;-60
2024/04/08 04:56:45;;;;;;;;;11.00;9.00;;;;;19.99;100.00;98822.66;6694861;25;95128;-60
2024/04/08 04:59:50;;;;;;;;;12.00;11.00;;;;;20.10;100.00;98824.22;6699350;26;95767;-61
2024/04/08 05:02:56;;;;;;;;;12.60;11.40;;;;;20.17;100.00;98833.75;6695587;26;94912;-58
2024/04/08 05:06:00;;;;;;;;;17.40;13.60;;;;;20.25;100.00;98835.84;6673922;25;94339;-61
2024/04/08 05:09:06;;;;;;;;;12.00;11.40;;;;;20.35;100.00;98835.00;6671710;26;96379;-58
2024/04/08 05:12:11;;;;;;;;;12.50;11.00;;;;;20.48;100.00;98838.97;6667206;26;94680;-58
2024/04/08 05:15:16;;;;;;;;;12.40;12.00;;;;;20.52;100.00;98824.47;6683593;26;94349;-58
2024/04/08 05:18:21;;;;;;;;;15.00;13.67;;;;;20.66;100.00;98832.81;6676433;26;94411;-58
2024/04/08 05:21:26;;;;;;;;;16.00;13.25;;;;;20.80;100.00;98838.44;6668554;26;94398;-58
2024/04/08 05:24:29;;;;;;;;;14.25;14.25;;;;;;;;6649968;26;97114;-58
2024/04/08 05:27:34;;;;;;;;;15.20;15.00;;;;;21.08;100.00;98835.66;6667833;26;94701;-58
2024/04/08 05:30:40;;;;;;;;;15.60;14.20;;;;;21.25;100.00;98835.22;6684088;26;96793;-58
2024/04/08 05:33:45;;;;;;;;;15.60;14.00;;;;;21.45;100.00;98834.94;6703509;25;94895;-59
2024/04/08 05:36:47;;;;;;;;;15.00;14.00;;;;;21.63;100.00;98829.78;6695629;25;94733;-59
2024/04/08 05:39:53;;;;;;;;;17.00;16.00;;;;;21.85;100.00;98833.59;6675846;26;95002;-60
2024/04/08 05:42:58;;;;;;;;;15.00;14.75;;;;;22.01;100.00;98835.03;6655746;25;94648;-59
2024/04/08 05:46:03;;;;;;;;;13.40;12.80;;;;;22.23;100.00;98837.19;6662948;26;94682;-58
2024/04/08 05:49:08;;;;;;;;;14.00;13.20;;;;;22.45;100.00;98833.78;6663846;26;95118;-58
2024/04/08 05:52:13;;;;;;;;;15.00;14.00;;;;;22.66;100.00;98834.25;6667493;26;94444;-57
2024/04/08 05:55:15;;;;;;;;;14.00;12.80;;;;;22.86;100.00;98828.44;6683378;26;94314;-57
2024/04/08 05:58:20;;;;;;;;;15.80;14.80;;;;;23.10;100.00;98828.25;6673154;26;94454;-58
2024/04/08 06:01:25;;;;;;;;;15.40;14.40;;;;;23.33;100.00;98838.22;6666782;26;94723;-58
2024/04/08 06:04:30;;;;;;;;;16.00;14.00;;;;;23.52;100.00;98838.94;6681321;26;95834;-58
2024/04/08 06:07:33;;;;;;;;;16.00;14.50;;;;;23.76;100.00;98838.72;6667778;26;94635;-59
2024/04/08 06:10:44;;;;;;;;;14.00;13.00;;;;;23.99;100.00;98831.31;6669121;26;94393;-58
2024/04/08 06:13:47;;;;;;;;;10.50;10.50;;;;;24.25;100.00;98835.13;6668581;26;95030;-58
2024/04/08 06:16:58;;;;;;;;;14.80;14.00;;;;;24.44;100.00;98838.50;6692735;26;94375;-62
2024/04/08 06:20:01;;;;;;;;;15.00;13.00;;;;;24.64;100.00;98831.66;6659172;26;94433;-63
2024/04/08 06:23:06;;;;;;;;;14.75;14.00;;;;;24.80;100.00;98824.63;6657695;26;94694;-63
2024/04/08 06:26:09;;;;;;;;;12.50;11.50;;;;;24.90;100.00;98815.31;6657477;26;94789;-62
2024/04/08 06:29:14;;;;;;;;;15.00;14.00;;;;;25.14;100.00;98825.97;6659134;26;94855;-62
2024/04/08 06:32:19;;;;;;;;;15.00;14.00;;;;;25.33;100.00;98829.28;6658987;26;94615;-62
2024/04/08 06:35:24;;;;;;;;;16.00;14.00;;;;;25.51;100.00;98832.91;6658987;26;94338;-62
2024/04/08 06:38:26;;;;;;;;;15.00;14.20;;;;;25.69;100.00;98832.66;6659441;26;95413;-62
2024/04/08 06:41:34;;;;;;;;;13.00;11.20;;;;;25.88;100.00;98844.22;6659131;26;94538;-62
2024/04/08 06:44:36;;;;;;;;;9.20;8.20;;;;;25.98;100.00;98834.81;6657389;26;94689;-62
2024/04/08 06:47:44;;;;;;;;;6.80;6.00;;;;;26.08;100.00;98833.66;6657571;26;94592;-62
2024/04/08 06:50:46;;;;;;;;;8.00;7.80;;;;;26.23;100.00;98838.75;6659247;26;94460;-62
2024/04/08 06:53:51;;;;;;;;;8.00;7.00;;;;;26.50;100.00;98838.38;6627275;26;94862;-62
2024/04/08 06:56:54;;;;;;;;;5.60;5.60;;;;;26.66;100.00;98842.28;6659265;26;95310;-62
2024/04/08 06:59:58;;;;;;;;;5.00;5.00;;;;;26.73;100.00;98837.03;6658911;26;94934;-62
2024/04/08 07:03:05;;;;;;;;;5.00;5.00;;;;;27.02;100.00;98841.06;6658962;26;94699;-62
2024/04/08 07:06:10;;;;;;;;;6.00;5.25;;;;;27.14;100.00;98836.47;6658884;26;94810;-62
2024/04/08 07:09:13;;;;;;;;;8.00;7.00;;;;;27.37;100.00;98839.75;6659037;26;95147;-63
2024/04/08 07:12:18;;;;;;;;;5.40;5.40;;;;;27.63;100.00;98847.16;6665481;26;97799;-62
2024/04/08 07:15:23;;;;;;;;;5.20;5.20;;;;;27.63;100.00;98847.97;6682347;26;94889;-62
2024/04/08 07:18:30;;;;;;;;;5.00;5.00;;;;;27.97;100.00;98847.75;6681943;26;94744;-62
2024/04/08 07:21:35;;;;;;;;;5.60;5.00;;;;;28.32;100.00;98853.06;6678149;26;94720;-62
2024/04/08 07:24:40;;;;;;;;;5.80;5.80;;;;;28.73;100.00;98849.44;6680313;26;94605;-62
2024/04/08 07:27:43;;;;;;;;;5.00;5.00;;;;;29.04;100.00;98854.47;6682866;25;94402;-62
2024/04/08 07:30:48;;;;;;;;;6.75;5.75;;;;;29.36;100.00;98853.66;6684612;26;94887;-62
2024/04/08 07:33:52;;;;;;;;;4.60;4.00;;;;;29.32;100.00;98851.91;6645587;26;96412;-62
2024/04/08 07:36:58;;;;;;;;;7.00;5.00;;;;;29.55;100.00;98855.84;6689326;26;94787;-62
2024/04/08 07:40:05;;;;;;;;;5.20;5.00;;;;;29.75;100.00;98848.53;6703097;25;94328;-62
2024/04/08 07:43:10;;;;;;;;;5.00;5.00;;;;;29.70;100.00;98855.94;6671574;26;96518;-62
2024/04/08 07:46:15;;;;;;;;;5.00;5.00;;;;;29.76;100.00;98850.97;6685530;25;95170;-62
2024/04/08 07:49:20;;;;;;;;;5.00;5.00;;;;;29.59;100.00;98820.66;6672854;26;94872;-62
2024/04/08 07:52:26;;;;;;;;;6.00;5.00;;;;;29.74;100.00;98855.25;6658105;26;94319;-62
2024/04/08 07:55:31;;;;;;;;;5.00;5.00;;;;;29.75;100.00;98854.91;6658045;26;95802;-62
2024/04/08 07:58:34;;;;;;;;;5.00;5.00;;;;;30.01;100.00;98852.56;6658158;26;94347;-62
2024/04/08 08:01:39;;;;;;;;;5.00;5.00;;;;;30.43;100.00;98855.81;6658017;26;94353;-62
2024/04/08 08:04:46;;;;;;;;;5.00;4.00;;;;;30.65;100.00;98850.88;6657038;26;94638;-62
2024/04/08 08:07:52;;;;;;;;;4.80;4.00;;;;;30.95;100.00;98854.88;6658352;26;95316;-62
2024/04/08 08:11:03;;;;;;;;;5.20;4.00;;;;;31.14;100.00;98846.66;6658604;26;94883;-62
2024/04/08 08:14:08;;;;;;;;;5.00;5.00;;;;;31.54;100.00;98843.69;6660310;26;97651;-61
2024/04/08 08:17:13;;;;;;;;;4.00;4.00;;;;;32.07;97.16;98844.16;6657813;26;94389;-62
2024/04/08 08:20:21;;;;;;;;;5.00;4.00;;;;;32.65;96.04;98845.84;6655918;26;95736;-62
2024/04/08 08:23:26;;;;;;;;;4.00;4.00;;;;;33.38;92.75;98847.59;6657877;26;94734;-62
2024/04/08 08:26:32;;;;;;;;;4.75;4.00;;;;;33.79;84.96;98837.50;6656020;26;95200;-62
2024/04/08 08:29:37;;;;;;;;;4.00;3.40;;;;;34.22;82.74;98832.50;6657698;26;94777;-62
2024/04/08 08:32:43;;;;;;;;;5.00;4.00;;;;;34.86;79.10;98842.50;6657704;26;97036;-62
2024/04/08 08:35:51;;;;;;;;;5.00;5.00;;;;;35.69;73.87;98828.06;6660658;26;94685;-62
2024/04/08 08:38:56;;;;;;;;;5.80;4.00;;;;;36.55;70.96;98830.97;6688637;26;94347;-62
2024/04/08 08:42:03;;;;;;;;;4.00;4.00;;;;;37.31;67.05;98830.75;6703783;26;95177;-62
2024/04/08 08:45:11;;;;;;;;;3.00;3.00;;;;;37.96;65.00;98821.09;6702937;26;94439;-63
2024/04/08 08:48:16;;;;;;;;;3.80;3.00;;;;;38.57;60.50;98828.13;6701083;26;94384;-62
2024/04/08 08:51:21;;;;;;;;;4.75;4.75;;;;;39.50;57.14;98829.16;6687793;25;94600;-62
2024/04/08 08:54:26;;;;;;;;;7.00;5.00;;;;;40.21;54.94;98829.31;6626574;26;96527;-62
2024/04/08 08:57:30;;;;;;;;;4.00;3.00;;;;;40.79;54.74;98823.72;6657737;26;94921;-63
2024/04/08 09:00:38;;;;;;;;;5.00;5.00;;;;;41.68;52.55;98826.78;6657121;26;94346;-63
2024/04/08 09:03:44;;;;;;;;;4.00;4.00;;;;;42.30;45.50;98828.06;6657258;26;94753;-63
2024/04/08 09:06:58;;;;;;;;;3.00;3.00;;;;;42.68;45.20;98819.97;6626156;26;94765;-63
2024/04/08 09:10:01;;;;;;;;;5.00;4.00;;;;;43.82;46.80;98820.88;6656959;26;94395;-63
2024/04/08 09:13:20;;;;;;;;;4.00;4.00;;;;;44.59;40.63;98814.22;6657184;26;94883;-63
2024/04/08 09:16:22;;;;;;;;;3.25;3.00;;;;;45.49;41.89;98813.84;6650501;26;95080;-63
2024/04/08 09:19:27;;;;;;;;;3.00;3.00;;;;;46.31;38.69;98801.13;6705893;25;94459;-63
2024/04/08 09:22:33;;;;;;;;;4.00;4.00;;;;;46.81;40.40;98802.88;6694697;26;94337;-63
2024/04/08 09:25:39;;;;;;;;;5.00;5.00;;;;;47.82;38.89;98783.97;6705102;25;95344;-63
2024/04/08 09:28:44;;;;;;;;;2.00;2.00;;;;;48.34;38.05;98787.81;6705505;25;94924;-63
2024/04/08 09:31:46;;;;;;;;;4.00;4.00;;;;;48.70;37.32;98781.19;6703189;26;94829;-64
2024/04/08 09:34:51;;;;;;;;;3.00;3.00;;;;;48.07;35.56;98777.97;6702237;25;94817;-64
2024/04/08 09:37:56;;;;;;;;;3.00;3.00;;;;;47.90;33.15;98770.19;6702996;26;94564;-64
2024/04/08 09:41:02;;;;;;;;;2.00;2.00;;;;;48.60;32.39;98766.09;6697907;26;94696;-63
2024/04/08 09:44:10;;;;;;;;;5.00;4.00;;;;;49.19;31.38;98760.78;6697991;26;94813;-63
2024/04/08 09:47:15;;;;;;;;;4.00;4.00;;;;;49.48;30.39;98760.94;6701204;25;94575;-59
2024/04/08 09:50:20;;;;;;;;;3.00;3.00;;;;;49.99;30.62;98757.03;6706699;25;94933;-59
2024/04/08 09:53:32;;;;;;;;;2.60;2.60;;;;;49.94;30.22;98752.78;6707779;26;95006;-59
2024/04/08 09:56:37;;;;;;;;;4.00;3.00;;;;;50.37;29.95;98750.44;6680538;26;97059;-59
2024/04/08 09:59:44;;;;;;;;;3.40;3.00;;;;;50.72;29.74;98757.06;6711638;25;94508;-59
2024/04/08 10:02:50;;;;;;;;;3.00;2.20;;;;;49.83;30.25;98758.28;6711198;25;95156;-59
2024/04/08 10:05:55;;;;;;;;;3.00;3.00;;;;;50.18;30.70;98753.53;6710423;25;95416;-58
2024/04/08 10:09:01;;;;;;;;;3.00;3.00;;;;;50.58;30.86;98743.53;6708873;26;94958;-59
2024/04/08 10:12:07;;;;;;;;;5.00;4.00;;;;;51.35;30.05;98737.41;6710060;26;94946;-59
2024/04/08 10:15:10;;;;;;;;;5.00;5.00;;;;;52.79;28.51;98729.53;6709103;25;94490;-58
2024/04/08 10:18:16;;;;;;;;;5.00;4.00;;;;;53.92;27.79;98732.47;6706519;26;94962;-58
2024/04/08 10:21:18;;;;;;;;;4.00;4.00;;;;;53.89;26.67;98728.53;6674701;25;94860;-59
2024/04/08 10:24:34;;;;;;;;;4.00;4.00;;;;;54.58;26.44;98714.47;6662527;26;94878;-59
2024/04/08 10:27:42;;;;;;;;;4.00;3.00;;;;;55.47;25.67;98707.72;6659770;26;95261;-59
2024/04/08 10:30:49;;;;;;;;;3.40;3.40;;;;;55.66;25.06;98703.69;6662165;26;94505;-59
2024/04/08 10:33:54;;;;;;;;;3.00;3.00;;;;;55.42;25.80;98700.66;6661982;26;94500;-59
2024/04/08 10:36:58;;;;;;;;;4.00;3.00;;;;;55.61;24.90;98692.94;6663438;26;94889;-59
2024/04/08 10:40:06;;;;;;;;;3.00;2.40;;;;;55.62;24.99;98694.50;6661675;26;94515;-59
2024/04/08 10:43:12;;;;;;;;;3.00;2.00;;;;;54.79;24.60;98695.53;6661834;26;94532;-59
2024/04/08 10:46:17;;;;;;;;;4.00;4.00;;;;;53.82;24.37;98691.53;6662160;26;94515;-58
2024/04/08 10:49:22;;;;;;;;;2.60;2.60;;;;;54.07;25.30;98688.97;6658586;26;94855;-59
2024/04/08 10:52:25;;;;;;;;;4.40;3.00;;;;;54.39;24.17;98678.78;6661305;26;94530;-60
2024/04/08 10:55:32;;;;;;;;;3.00;3.00;;;;;54.55;22.87;98666.41;6661449;26;95067;-59
2024/04/08 10:58:34;;;;;;;;;3.00;2.80;;;;;54.12;23.89;98668.00;6659946;26;94552;-60
2024/04/08 11:01:39;;;;;;;;;2.00;2.00;;;;;54.36;24.54;98674.84;6660606;26;94717;-60
2024/04/08 11:04:45;;;;;;;;;5.00;4.00;;;;;54.52;24.80;98667.47;6659460;26;94606;-59
2024/04/08 11:07:48;;;;;;;;;3.00;3.00;;;;;54.29;24.62;98674.56;6686983;26;94869;-60
2024/04/08 11:10:59;;;;;;;;;3.00;3.00;;;;;51.52;25.69;98655.88;6706506;25;95399;-59
2024/04/08 11:14:02;;;;;;;;;3.00;2.60;;;;;51.09;26.78;98651.13;6707854;25;95896;-59
2024/04/08 11:17:10;;;;;;;;;3.00;3.00;;;;;50.19;27.33;98646.13;6688196;25;94783;-59
2024/04/08 11:20:13;;;;;;;;;3.00;3.00;;;;;49.62;26.78;98642.69;6708847;25;94510;-59
2024/04/08 11:23:19;;;;;;;;;6.00;5.00;;;;;49.29;28.12;98642.81;6709978;26;94729;-58
2024/04/08 11:26:30;;;;;;;;;4.00;3.67;;;;;48.92;28.03;98632.91;6706722;26;94667;-60
2024/04/08 11:29:33;;;;;;;;;3.00;3.00;;;;;47.87;30.28;98631.88;6687118;26;95431;-59
2024/04/08 11:32:38;;;;;;;;;3.00;3.00;;;;;47.36;29.83;98621.13;6699377;26;94725;-58
2024/04/08 11:35:40;;;;;;;;;3.00;3.00;;;;;46.77;31.89;98622.44;6704507;26;94484;-59
2024/04/08 11:38:45;;;;;;;;;4.00;4.00;;;;;46.06;32.42;98613.94;6683033;25;96670;-58
2024/04/08 11:41:50;;;;;;;;;3.00;3.00;;;;;45.57;32.74;98610.13;6705754;25;94802;-58
2024/04/08 11:45:00;;;;;;;;;3.00;3.00;;;;;45.53;36.26;98613.13;6708151;25;94663;-57
2024/04/08 11:48:11;;;;;;;;;3.00;3.00;;;;;45.47;35.48;98619.88;6707912;26;94443;-59
2024/04/08 11:51:14;;;;;;;;;3.00;3.00;;;;;45.07;33.68;98603.41;6680689;26;94748;-60
2024/04/08 11:54:19;;;;;;;;;4.60;4.60;;;;;45.04;35.47;98610.03;6675576;26;94938;-58
2024/04/08 11:57:26;;;;;;;;;4.00;4.00;;;;;44.54;34.41;98608.03;6672500;25;94967;-60
2024/04/08 12:00:29;;;;;;;;;4.40;4.00;;;;;44.41;34.84;98608.06;6678014;25;94359;-59
2024/04/08 12:03:34;;;;;;;;;3.60;3.00;;;;;44.25;35.06;98602.50;6682253;26;96602;-59
2024/04/08 12:06:36;;;;;;;;;2.60;2.00;;;;;44.08;36.23;98591.66;6663056;26;94975;-59
2024/04/08 12:09:44;;;;;;;;;3.00;3.00;;;;;43.60;35.54;98585.78;6671261;26;94431;-63
2024/04/08 12:12:52;;;;;;;;;3.00;3.00;;;;;43.10;37.63;98585.59;6685845;25;95034;-63
2024/04/08 12:15:54;;;;;;;;;5.00;4.00;;;;;42.54;40.60;98582.97;6698706;25;94369;-63
2024/04/08 12:19:00;;;;;;;;;3.00;3.00;;;;;41.90;38.26;98580.84;6686788;26;94528;-62
2024/04/08 12:22:03;;;;;;;;;4.00;4.00;;;;;41.29;39.53;98572.81;6679570;26;94855;-62
2024/04/08 12:25:08;;;;;;;;;3.80;3.00;;;;;40.38;41.95;98576.03;6698995;26;94649;-63
2024/04/08 12:28:13;;;;;;;;;3.20;3.00;;;;;39.83;42.82;98576.47;6689788;26;94671;-62
2024/04/08 12:31:18;;;;;;;;;4.00;3.80;;;;;39.34;45.36;98575.84;6692126;25;94622;-62
2024/04/08 12:34:23;;;;;;;;;3.00;3.00;;;;;39.16;43.34;98571.59;6680578;25;94342;-62
2024/04/08 12:37:25;;;;;;;;;6.00;5.00;;;;;39.30;43.83;98565.78;6680040;26;94819;-63
2024/04/08 12:40:30;;;;;;;;;4.00;3.00;;;;;39.39;43.62;98563.31;6671056;25;94471;-62
2024/04/08 12:43:39;;;;;;;;;5.00;4.00;;;;;39.40;43.50;98556.44;6698654;26;96673;-62
2024/04/08 12:46:57;;;;;;;;;4.40;3.40;;;;;39.42;44.66;98551.19;6690885;26;94400;-62
2024/04/08 12:49:59;;;;;;;;;4.00;4.00;;;;;39.47;46.42;98553.53;6677868;26;94708;-62
2024/04/08 12:53:05;;;;;;;;;3.00;3.00;;;;;39.49;46.79;98548.25;6678102;26;97289;-63
2024/04/08 12:56:09;;;;;;;;;4.00;4.00;;;;;39.40;45.77;98543.13;6706937;25;94252;-63
2024/04/08 12:59:16;;;;;;;;;5.00;4.60;;;;;39.14;46.85;98538.22;6691620;25;94612;-62
2024/04/08 13:02:23;;;;;;;;;3.40;3.00;;;;;38.68;44.52;98535.84;6700895;25;94737;-63
2024/04/08 13:05:29;;;;;;;;;3.00;3.00;;;;;37.56;47.35;98547.50;6667310;26;95459;-63
2024/04/08 13:08:34;;;;;;;;;3.60;3.60;;;;;37.06;47.93;98529.16;6683051;26;94374;-63
2024/04/08 13:11:39;;;;;;;;;4.00;3.00;;;;;36.87;48.73;98527.63;6660576;26;94333;-63
2024/04/08 13:14:47;;;;;;;;;2.60;2.00;;;;;36.94;48.17;98524.81;6671672;26;94315;-63
2024/04/08 13:17:52;;;;;;;;;3.00;3.00;;;;;37.03;48.96;98521.56;6673127;26;94833;-58
2024/04/08 13:20:57;;;;;;;;;3.00;3.00;;;;;37.06;48.46;98520.75;6675923;26;95803;-59
2024/04/08 13:23:59;;;;;;;;;4.40;3.00;;;;;37.17;52.04;98518.72;6676753;25;95651;-59
2024/04/08 13:27:05;;;;;;;;;3.60;3.00;;;;;37.07;50.15;98525.16;6678447;25;94444;-59
2024/04/08 13:30:11;;;;;;;;;3.00;3.00;;;;;36.74;49.53;98521.66;6664391;26;94783;-59
2024/04/08 13:33:16;;;;;;;;;4.00;3.40;;;;;36.45;51.82;98520.88;6681124;26;94558;-60
2024/04/08 13:36:21;;;;;;;;;4.00;3.00;;;;;36.38;53.74;98517.25;6688326;25;94832;-59
2024/04/08 13:39:27;;;;;;;;;2.00;2.00;;;;;36.23;52.89;98510.03;6680061;26;94670;-59
2024/04/08 13:42:29;;;;;;;;;4.00;3.00;;;;;35.92;51.24;98503.97;6684615;25;94287;-59
2024/04/08 13:45:38;;;;;;;;;3.00;3.00;;;;;35.94;50.15;98506.38;6684244;25;96085;-58
2024/04/08 13:48:41;;;;;;;;;4.00;3.33;;;;;35.95;51.81;98499.59;6697009;25;94406;-58
2024/04/08 13:51:55;;;;;;;;;3.00;3.00;;;;;35.79;50.25;98499.97;6663156;26;95840;-59
2024/04/08 13:55:00;;;;;;;;;4.60;4.00;;;;;35.70;51.71;98493.94;6663744;26;94625;-58
2024/04/08 13:58:02;;;;;;;;;3.00;3.00;;;;;35.34;54.12;98506.22;6663935;26;94300;-57
2024/04/08 14:01:10;;;;;;;;;3.00;3.00;;;;;35.08;53.42;98507.31;6662459;26;95298;-57
2024/04/08 14:04:15;;;;;;;;;3.50;3.00;;;;;34.80;55.12;98493.16;6662623;26;94628;-59
2024/04/08 14:07:20;;;;;;;;;4.00;3.00;;;;;34.74;55.52;98504.75;6699026;26;94373;-58
2024/04/08 14:10:23;;;;;;;;;4.20;3.20;;;;;34.77;53.68;98491.94;6696986;25;94792;-59
2024/04/08 14:13:28;;;;;;;;;2.20;2.00;;;;;34.93;57.78;98498.03;6664246;26;94703;-58
2024/04/08 14:16:33;;;;;;;;;3.00;3.00;;;;;34.83;55.01;98484.78;6692961;26;94317;-58
2024/04/08 14:19:38;;;;;;;;;3.00;3.00;;;;;34.95;56.82;98483.63;6709529;25;94290;-59
2024/04/08 14:22:43;;;;;;;;;3.00;3.00;;;;;34.69;54.23;98491.13;6707679;26;96539;-58